Flight Track Log - Related Links

Times and Time Zones

All times are in EDT time to prevent confusion due to time zone crossing. See the SWA3497 flight status page for this flight to view local times or setup timezone preferences in your user account.

Time Position Orientation Groundspeed Altitude Reporting Facility
EDT Latitude Longitude Course Direction KTS MPH feet Rate Location/Type
Tue 04:26:49 PM 39.1667 -76.7500 142° Southeast 227 261 2,900  Level Potomac TRACON
Tue 04:27:43 PM 39.1333 -76.7167 142° Southeast 246 283 4,600 2,488 Climbing Potomac TRACON
Tue 04:29:33 PM 39.1369 -76.5256 89° East 273 314 9,700 2,647 Climbing Washington Center
Tue 04:30:33 PM 39.1419 -76.4106 87° East 293 337 12,100 2,900 Climbing Washington Center
Tue 04:31:33 PM 39.1469 -76.2819 87° East 327 376 15,500 3,050 Climbing Washington Center
Tue 04:32:33 PM 39.1600 -76.1644 82° East 361 415 18,200 2,700 Climbing Washington Center
Tue 04:33:33 PM 39.1753 -76.0306 82° East 371 427 20,900 2,600 Climbing Washington Center
Tue 04:34:33 PM 39.1964 -75.8917 79° East 377 434 23,400 1,983 Climbing Washington Center
Tue 04:35:34 PM 39.2653 -75.7872 50° Northeast 368 423 24,900 750 Climbing Washington Center
Tue 04:36:33 PM 39.3467 -75.6828 45° Northeast 393 452 24,900  Level Washington Center
Tue 04:37:33 PM 39.4303 -75.5728 45° Northeast 406 467 24,900 50 Level Washington Center
Tue 04:38:34 PM 39.5133 -75.4678 44° Northeast 412 474 25,000  Climbing Washington Center
Tue 04:41:02 PM 39.7203 -75.1889 46° Northeast 411 473 24,900  Descending New York Center
Tue 04:42:03 PM 39.8017 -75.0697 48° Northeast 416 479 25,000 49 Climbing New York Center
Tue 04:43:04 PM 39.8808 -74.9558 48° Northeast 428 493 25,000 -450 Level New York Center
Tue 04:44:03 PM 39.9642 -74.8389 47° Northeast 428 493 24,100 -1,008 Descending New York Center
Tue 04:45:03 PM 40.0431 -74.7242 48° Northeast 428 493 23,000 -545 Descending New York Center
Tue 04:46:04 PM 40.1108 -74.6275 47° Northeast 416 479 23,000  Level New York Center
Tue 04:47:05 PM 40.1919 -74.5097 48° Northeast 402 463 23,000 -50 Level New York Center
Tue 04:48:05 PM 40.2739 -74.4217 39° Northeast 402 463 22,900 -51 Descending New York Center
Tue 04:49:02 PM 40.3600 -74.3283 40° Northeast 402 463 22,900  Level New York Center
Tue 04:50:03 PM 40.4464 -74.2319 40° Northeast 402 463 22,900  Level New York Center
Tue 04:51:03 PM 40.5367 -74.1381 38° Northeast 402 463 22,900  Level New York Center
Tue 04:52:52 PM 40.7042 -73.9594 39° Northeast 425 489 22,900  Level Boston Center
Tue 04:53:52 PM 40.7972 -73.8547 40° Northeast 431 496 22,900  Level Boston Center
Tue 04:55:03 PM 40.8861 -73.7469 42° Northeast 431 496 22,900  Level Boston Center
Tue 04:56:04 PM 41.0081 -73.6447 32° Northeast 436 502 22,900  Level Boston Center
Tue 04:57:04 PM 41.1267 -73.6744 349° North 396 456 22,900 -250 Level Boston Center
Tue 04:58:04 PM 41.2433 -73.6547 North 410 472 22,400 -1,350 Descending Boston Center
Tue 04:59:04 PM 41.3583 -73.6375 North 415 478 20,200 -2,150 Descending Boston Center
Tue 05:00:04 PM 41.4667 -73.6231 North 393 452 18,100 -1,100 Descending Boston Center
Tue 05:01:04 PM 41.5836 -73.6058 North 388 447 18,000 -200 Descending Boston Center
Tue 05:02:04 PM 41.6775 -73.5908 North 382 440 17,700 -1,400 Descending Boston Center
Tue 05:03:04 PM 41.7925 -73.5733 North 382 440 15,200 -2,250 Descending Boston Center
Tue 05:04:04 PM 41.8864 -73.5583 North 376 433 13,200 -2,194 Descending Boston Center
Tue 05:04:37 PM 41.9511 -73.5511 North 360 414 11,800 -2,200 Descending Boston Center
Tue 05:05:04 PM 41.9928 -73.5433 North 358 412 11,000 -552 Descending Boston Center
Tue 05:06:04 PM 42.0889 -73.5311 North 350 403 11,000  Level Boston Center
Tue 05:07:03 PM 42.1639 -73.5325 359° North 345 397 11,000  Level Boston Center
Tue 05:08:04 PM 42.2739 -73.5681 347° North 340 391 11,000 -76 Level Boston Center
Tue 05:08:22 PM 42.3008 -73.5769 346° North 326 375 10,900 -900 Descending Boston Center
Tue 05:09:04 PM 42.3528 -73.5892 350° North 314 361 10,100 -1,279 Descending Boston Center
Tue 05:09:23 PM 42.3800 -73.5981 346° North 273 314 9,600 -1,500 Descending Boston Center
Tue 05:10:04 PM 42.4297 -73.6158 345° North 283 326 8,600 -1,600 Descending Boston Center
Tue 05:10:23 PM 42.4547 -73.6247 345° North 281 323 8,000 -1,600 Descending Boston Center
Tue 05:11:04 PM 42.5067 -73.6397 348° North 278 320 7,000 -1,200 Descending Boston Center
Tue 05:12:03 PM 42.5669 -73.6608 346° North 278 320 6,000 -1,216 Descending Boston Center
Tue 05:12:18 PM 42.6022 -73.6756 343° North 282 325 5,500 -1,574 Descending Boston Center
Tue 05:13:04 PM 42.6561 -73.6878 351° North 278 320 4,400 -1,377 Descending Boston Center
Tue 05:13:19 PM 42.6789 -73.6939 349° North 272 313 4,100 -400 Descending Boston Center
Tue 05:14:04 PM 42.7289 -73.7006 354° North 270 311 4,000 -286 Descending Boston Center
Tue 05:15:04 PM 42.7892 -73.7106 353° North 233 268 3,600 -450 Descending Boston Center
Tue 05:16:04 PM 42.8328 -73.7283 343° North 211 243 3,100 -913 Descending Boston Center
Tue 05:17:22 PM 42.8322 -73.7906 269° West 128 147 1,500 -870 Descending Boston Center
Tue 05:18:22 PM 42.7944 -73.8094 200° South 140 161 1,100 -595 Descending Boston Center
Tue 05:19:23 PM 42.7569 -73.8058 176° South 137 158 300 -787 Descending Boston Center

Login

Don't have an account? Register now (free) for customized features, flight alerts, and more!